Time;durP1;ratioP1;P1;durP2;ratioP2;P2;SDS_P1;SDS_P2;PMS_P1;PMS_P2;Temp;Humidity;BMP_temperature;BMP_pressure;BME280_temperature;BME280_humidity;BME280_pressure;Samples;Min_cycle;Max_cycle;Signal;HPM_P1;HPM_P2
2022/07/01 00:00:11;;;;;;;27.38;18.83;;;14.20;99.90;;;;;;5014751;28;20026;-73
2022/07/01 00:02:36;;;;;;;35.28;20.05;;;14.10;99.90;;;;;;5013989;28;20037;-73
2022/07/01 00:05:02;;;;;;;25.23;17.00;;;14.10;99.90;;;;;;5013607;28;20022;-73
2022/07/01 00:07:27;;;;;;;26.15;17.70;;;14.60;99.90;;;;;;5013938;28;20031;-74
2022/07/01 00:09:53;;;;;;;24.73;15.82;;;14.00;99.90;;;;;;5000323;28;20695;-74
2022/07/01 00:12:18;;;;;;;22.27;16.45;;;14.00;99.90;;;;;;4995849;28;20514;-75
2022/07/01 00:14:44;;;;;;;22.67;15.63;;;14.10;99.90;;;;;;5013756;28;20042;-74
2022/07/01 00:17:09;;;;;;;24.63;15.20;;;14.00;99.90;;;;;;5013840;28;20046;-74
2022/07/01 00:19:35;;;;;;;23.65;15.50;;;13.90;99.90;;;;;;4996709;28;20072;-74
2022/07/01 00:22:00;;;;;;;25.55;15.65;;;14.00;99.90;;;;;;5013882;28;20045;-74
2022/07/01 00:24:26;;;;;;;25.77;16.73;;;13.90;99.90;;;;;;4990940;28;20029;-73
2022/07/01 00:26:52;;;;;;;25.20;16.00;;;13.90;99.90;;;;;;5014150;28;20045;-72
2022/07/01 00:29:18;;;;;;;24.42;15.23;;;13.90;99.90;;;;;;4996439;28;20030;-74
2022/07/01 00:31:43;;;;;;;24.13;15.43;;;13.90;99.90;;;;;;5013595;28;20022;-74
2022/07/01 00:34:09;;;;;;;24.15;16.42;;;13.90;99.90;;;;;;5013731;28;20048;-73
2022/07/01 00:36:34;;;;;;;19.17;14.25;;;13.90;99.90;;;;;;5013966;28;20395;-73
2022/07/01 00:39:06;;;;;;;25.13;14.75;;;13.90;99.90;;;;;;4996380;28;20025;-74
2022/07/01 00:41:31;;;;;;;17.55;11.75;;;13.90;99.90;;;;;;5014037;28;20030;-74
2022/07/01 00:43:57;;;;;;;20.48;13.20;;;13.90;99.90;;;;;;4996974;28;20033;-75
2022/07/01 00:46:26;;;;;;;19.13;12.25;;;13.90;99.90;;;;;;5014222;28;20026;-74
2022/07/01 00:48:56;;;;;;;19.60;11.85;;;13.90;99.90;;;;;;4997055;28;20034;-74
2022/07/01 00:51:22;;;;;;;21.45;13.30;;;13.90;99.90;;;;;;5014376;28;20044;-73
2022/07/01 00:53:47;;;;;;;15.13;11.23;;;13.90;99.90;;;;;;4996757;28;20104;-73
2022/07/01 00:56:13;;;;;;;20.73;13.15;;;14.00;99.90;;;;;;5013616;28;20038;-74
2022/07/01 00:58:39;;;;;;;16.70;11.30;;;14.00;99.90;;;;;;5013780;28;20025;-74
2022/07/01 01:01:04;;;;;;;16.35;10.38;;;14.00;99.90;;;;;;4996780;28;20026;-74
2022/07/01 01:03:30;;;;;;;14.45;10.82;;;14.10;99.90;;;;;;5013417;28;20152;-74
2022/07/01 01:05:56;;;;;;;21.13;10.82;;;14.00;99.90;;;;;;4996044;28;20156;-74
2022/07/01 01:08:22;;;;;;;28.42;13.13;;;14.00;99.90;;;;;;4996685;28;20029;-74
2022/07/01 01:10:47;;;;;;;21.77;11.32;;;14.00;99.90;;;;;;5013875;28;20022;-74
2022/07/01 01:13:13;;;;;;;17.98;10.50;;;14.10;99.90;;;;;;4995979;28;20540;-73
2022/07/01 01:15:39;;;;;;;18.48;10.45;;;14.00;99.90;;;;;;5013574;28;20084;-73
2022/07/01 01:18:04;;;;;;;17.40;9.88;;;14.00;99.90;;;;;;5013598;28;20037;-73
2022/07/01 01:20:35;;;;;;;20.48;10.45;;;13.90;99.90;;;;;;5013117;28;20034;-73
2022/07/01 01:23:01;;;;;;;16.10;9.40;;;13.90;99.90;;;;;;5013458;28;20105;-73
2022/07/01 01:25:27;;;;;;;13.95;9.48;;;13.90;99.90;;;;;;4996539;28;20045;-72
2022/07/01 01:27:52;;;;;;;13.68;8.88;;;13.80;99.90;;;;;;4995721;28;20049;-73
2022/07/01 01:30:18;;;;;;;16.50;9.23;;;13.90;99.90;;;;;;5013529;28;20075;-72
2022/07/01 01:32:44;;;;;;;15.00;8.70;;;14.00;99.90;;;;;;5013392;28;20025;-73
2022/07/01 01:35:09;;;;;;;18.50;9.77;;;13.90;99.90;;;;;;4979958;28;20030;-73
2022/07/01 01:37:35;;;;;;;15.38;8.73;;;13.90;99.90;;;;;;5013475;28;20104;-73
2022/07/01 01:40:01;;;;;;;17.52;10.40;;;13.90;99.90;;;;;;5013272;28;20383;-73
2022/07/01 01:42:27;;;;;;;17.60;9.52;;;13.90;99.90;;;;;;5013304;28;20026;-73
2022/07/01 01:44:54;;;;;;;20.65;10.45;;;13.90;99.90;;;;;;5013353;28;20030;-73
2022/07/01 01:47:19;;;;;;;18.55;10.32;;;13.90;99.90;;;;;;4995694;28;20030;-73
2022/07/01 01:49:45;;;;;;;17.40;10.27;;;13.90;99.90;;;;;;5013056;28;20408;-73
2022/07/01 01:52:10;;;;;;;19.23;11.15;;;14.00;99.90;;;;;;4995536;28;20088;-73
2022/07/01 01:54:36;;;;;;;18.83;12.05;;;14.00;99.90;;;;;;4995533;28;20084;-73
2022/07/01 01:57:03;;;;;;;22.92;13.05;;;14.10;99.90;;;;;;5013054;28;20017;-72
2022/07/01 02:02:51;;;;;;;24.55;14.18;;;14.10;99.90;;;;;;5001606;28;20099;-73
2022/07/01 02:05:18;;;;;;;27.45;14.93;;;14.00;99.90;;;;;;5012851;28;20508;-73
2022/07/01 02:07:44;;;;;;;26.52;15.35;;;14.00;99.90;;;;;;5012697;28;20113;-73
2022/07/01 02:10:09;;;;;;;27.08;15.18;;;14.00;99.90;;;;;;5012259;28;20181;-73
2022/07/01 02:12:35;;;;;;;29.00;15.07;;;14.00;99.90;;;;;;5012585;28;20049;-74
2022/07/01 02:15:00;;;;;;;27.45;16.40;;;14.00;99.90;;;;;;5013039;28;20417;-74
2022/07/01 02:17:26;;;;;;;27.65;16.80;;;14.00;99.90;;;;;;5013034;28;20132;-74
2022/07/01 02:19:52;;;;;;;31.48;18.33;;;14.10;99.90;;;;;;5012872;28;20498;-74
2022/07/01 02:22:17;;;;;;;31.95;16.65;;;14.00;99.90;;;;;;5013301;28;20417;-73
2022/07/01 02:24:44;;;;;;;28.00;16.25;;;13.90;99.90;;;;;;5013130;28;20061;-73
2022/07/01 02:27:10;;;;;;;28.58;16.13;;;14.00;99.90;;;;;;5013200;28;20040;-72
2022/07/01 02:29:35;;;;;;;29.05;16.63;;;14.00;99.90;;;;;;5012911;28;20063;-74
2022/07/01 02:32:01;;;;;;;29.10;16.83;;;14.00;99.90;;;;;;5011912;28;20034;-74
2022/07/01 02:34:26;;;;;;;30.60;16.50;;;14.70;99.90;;;;;;5013091;28;20422;-74
2022/07/01 02:36:55;;;;;;;33.35;16.77;;;13.90;99.90;;;;;;5012882;28;20033;-74
2022/07/01 02:39:20;;;;;;;27.30;14.98;;;13.90;99.90;;;;;;5012793;28;20050;-74
2022/07/01 02:44:30;;;;;;;26.50;15.18;;;13.90;99.90;;;;;;5012852;28;20080;-74
2022/07/01 02:46:55;;;;;;;29.40;15.18;;;13.90;99.90;;;;;;5012808;28;20054;-74
2022/07/01 02:49:21;;;;;;;25.42;13.50;;;13.90;99.90;;;;;;5012861;28;20116;-74
2022/07/01 02:51:46;;;;;;;25.30;13.73;;;13.90;99.90;;;;;;5012548;28;20034;-74
2022/07/01 02:54:12;;;;;;;26.08;13.45;;;13.90;99.90;;;;;;5012589;28;20121;-74
2022/07/01 02:56:37;;;;;;;22.65;12.77;;;13.90;99.90;;;;;;5012898;28;20022;-74
2022/07/01 02:59:03;;;;;;;21.65;13.95;;;13.90;99.90;;;;;;5012616;28;20533;-75
2022/07/01 03:01:28;;;;;;;20.33;12.45;;;13.90;99.90;;;;;;5012488;28;20394;-73
2022/07/01 03:03:54;;;;;;;21.27;13.15;;;14.00;99.90;;;;;;5011824;28;20037;-73
2022/07/01 03:06:19;;;;;;;23.80;13.52;;;13.90;99.90;;;;;;5012863;28;20037;-73
2022/07/01 03:08:45;;;;;;;21.90;13.30;;;13.90;99.90;;;;;;4995291;28;20030;-73
2022/07/01 03:11:10;;;;;;;23.90;12.93;;;14.00;99.90;;;;;;5012484;28;20026;-73
2022/07/01 03:13:36;;;;;;;20.55;13.05;;;14.10;99.90;;;;;;5012498;28;20414;-74
2022/07/01 03:16:01;;;;;;;22.58;12.25;;;14.10;99.90;;;;;;5011786;28;20030;-74
2022/07/01 03:18:27;;;;;;;23.95;13.27;;;14.10;99.90;;;;;;4995062;28;20022;-74
2022/07/01 03:20:52;;;;;;;29.40;14.63;;;14.10;99.90;;;;;;5012513;28;20018;-74
2022/07/01 03:23:18;;;;;;;30.02;17.50;;;14.10;99.90;;;;;;5012508;28;20033;-74
2022/07/01 03:25:43;;;;;;;30.42;17.92;;;14.20;99.90;;;;;;5011966;28;20030;-75
2022/07/01 03:28:09;;;;;;;36.15;18.38;;;14.30;99.90;;;;;;5012489;28;20666;-75
2022/07/01 03:30:34;;;;;;;32.65;18.13;;;14.20;99.90;;;;;;4994895;28;20037;-75
2022/07/01 03:33:00;;;;;;;26.38;16.60;;;14.30;99.90;;;;;;4994814;28;20125;-75
2022/07/01 03:35:45;;;;;;;26.15;16.23;;;14.30;99.90;;;;;;5012144;28;20056;-75
2022/07/01 03:38:11;;;;;;;28.52;17.00;;;14.20;99.90;;;;;;5012296;28;20033;-74
2022/07/01 03:40:36;;;;;;;33.05;17.55;;;14.20;99.90;;;;;;5012410;28;20053;-73
2022/07/01 03:43:02;;;;;;;26.73;16.35;;;14.20;99.90;;;;;;5011911;28;20034;-74
2022/07/01 03:45:28;;;;;;;21.90;13.98;;;14.30;99.90;;;;;;5015312;28;20501;-74
2022/07/01 03:47:53;;;;;;;26.40;14.18;;;14.30;99.90;;;;;;5015692;28;20029;-74
2022/07/01 03:50:21;;;;;;;23.08;13.18;;;14.20;99.90;;;;;;5016131;28;20076;-74
2022/07/01 03:52:46;;;;;;;23.23;13.80;;;14.30;99.90;;;;;;5015790;28;20105;-74
2022/07/01 03:55:12;;;;;;;22.85;14.13;;;14.30;99.90;;;;;;5015771;28;20124;-74
2022/07/01 03:57:38;;;;;;;19.73;11.30;;;14.30;99.90;;;;;;5016001;28;20049;-74
2022/07/01 04:00:05;;;;;;;16.30;10.57;;;14.30;99.90;;;;;;5015680;28;20095;-74
2022/07/01 04:02:30;;;;;;;18.05;9.77;;;14.30;99.90;;;;;;5015959;28;20029;-74
2022/07/01 04:05:42;;;;;;;16.95;9.77;;;14.30;99.90;;;;;;5015704;28;20130;-74
2022/07/01 04:08:17;;;;;;;15.30;8.98;;;14.40;99.90;;;;;;5015677;28;20049;-74
2022/07/01 04:10:42;;;;;;;21.60;9.93;;;14.40;99.90;;;;;;4998087;28;20113;-74
2022/07/01 04:13:08;;;;;;;12.48;8.80;;;14.40;99.90;;;;;;5015481;28;20185;-73
2022/07/01 04:15:34;;;;;;;19.65;9.10;;;14.40;99.90;;;;;;5011766;28;20536;-74
2022/07/01 04:17:59;;;;;;;16.70;9.32;;;14.30;99.90;;;;;;5003547;28;20026;-72
2022/07/01 04:20:25;;;;;;;18.50;8.75;;;14.30;99.90;;;;;;4997846;28;20041;-73
2022/07/01 04:22:50;;;;;;;21.23;9.20;;;14.20;99.90;;;;;;5014486;28;20386;-74
2022/07/01 04:25:16;;;;;;;23.40;10.27;;;14.20;99.90;;;;;;5015153;28;20029;-75
2022/07/01 04:27:42;;;;;;;17.90;8.20;;;14.20;99.90;;;;;;5014990;28;20053;-74
2022/07/01 04:30:08;;;;;;;20.17;9.73;;;14.20;99.90;;;;;;5010796;28;20085;-74
2022/07/01 04:32:33;;;;;;;29.90;10.05;;;14.20;99.90;;;;;;5015238;28;20058;-72
2022/07/01 04:35:48;;;;;;;20.08;8.27;;;14.50;99.90;;;;;;5009212;28;20538;-73
2022/07/01 04:38:14;;;;;;;20.25;9.43;;;14.20;99.90;;;;;;4982682;28;20388;-73
2022/07/01 04:44:39;;;;;;;16.45;7.50;;;14.40;99.90;;;;;;4954070;29;20034;-73
2022/07/01 04:47:04;;;;;;;20.25;7.70;;;14.40;99.90;;;;;;4973490;28;20031;-74
2022/07/01 04:49:30;;;;;;;19.35;7.70;;;14.30;99.90;;;;;;4995048;28;20422;-74
2022/07/01 04:55:28;;;;;;;25.67;7.38;;;14.40;99.90;;;;;;4961642;28;20046;-74
2022/07/01 04:57:54;;;;;;;10.07;6.68;;;14.30;99.90;;;;;;4972408;28;20112;-74
2022/07/01 05:00:20;;;;;;;14.23;8.30;;;14.40;99.90;;;;;;4969203;28;20070;-75
2022/07/01 05:02:46;;;;;;;17.05;8.35;;;14.40;99.90;;;;;;4972073;28;20022;-74
2022/07/01 05:05:11;;;;;;;16.90;6.95;;;14.40;99.90;;;;;;4972580;28;20031;-74
2022/07/01 05:07:37;;;;;;;18.58;8.75;;;14.30;99.90;;;;;;4972675;28;20031;-73
2022/07/01 05:10:03;;;;;;;15.60;9.18;;;14.40;99.90;;;;;;4972179;28;20532;-73
2022/07/01 05:12:28;;;;;;;18.10;8.25;;;14.50;99.90;;;;;;4972069;28;20034;-73
2022/07/01 05:14:54;;;;;;;17.33;8.18;;;14.50;99.90;;;;;;4972503;28;20027;-72
2022/07/01 05:17:19;;;;;;;19.73;8.55;;;14.60;99.90;;;;;;4972547;28;20059;-73
2022/07/01 05:22:35;;;;;;;18.77;6.30;;;14.60;99.90;;;;;;4965899;28;20081;-74
2022/07/01 05:25:01;;;;;;;24.48;7.85;;;14.50;99.90;;;;;;4972215;28;20407;-74
2022/07/01 05:27:27;;;;;;;22.70;8.57;;;14.50;99.90;;;;;;4956095;28;20035;-74
2022/07/01 05:29:53;;;;;;;31.30;11.18;;;14.50;99.90;;;;;;4966109;28;20070;-74
2022/07/01 05:32:18;;;;;;;34.15;10.13;;;14.70;99.90;;;;;;4985731;28;20498;-74
2022/07/01 05:34:44;;;;;;;11.15;5.95;;;14.70;99.90;;;;;;4992520;28;20059;-75
2022/07/01 05:37:32;;;;;;;16.58;7.05;;;14.70;99.90;;;;;;4990685;28;20123;-74
2022/07/01 05:40:12;;;;;;;19.25;7.88;;;14.60;99.90;;;;;;4989349;28;20022;-74
2022/07/01 05:42:38;;;;;;;18.13;7.28;;;14.60;99.90;;;;;;4991889;28;20023;-74
2022/07/01 05:45:04;;;;;;;12.20;6.43;;;14.60;99.90;;;;;;4978023;28;20402;-75
2022/07/01 05:47:29;;;;;;;15.05;7.00;;;14.80;99.90;;;;;;4993223;28;20034;-74
2022/07/01 05:50:43;;;;;;;13.75;7.10;;;14.80;99.90;;;;;;4990110;28;20030;-73
2022/07/01 05:53:08;;;;;;;20.63;7.63;;;14.90;99.90;;;;;;4992162;28;20122;-74
2022/07/01 05:55:34;;;;;;;16.02;7.00;;;15.00;99.90;;;;;;5004759;28;20129;-73
2022/07/01 05:58:01;;;;;;;14.00;6.20;;;15.90;99.90;;;;;;5012952;28;20054;-72
2022/07/01 06:00:29;;;;;;;17.33;7.47;;;15.20;99.90;;;;;;5011155;28;20522;-73
2022/07/01 06:02:54;;;;;;;12.02;6.20;;;15.10;99.90;;;;;;5012189;28;20036;-72
2022/07/01 06:05:20;;;;;;;19.80;7.15;;;15.10;99.90;;;;;;5012323;28;20029;-73
2022/07/01 06:07:46;;;;;;;19.48;7.70;;;15.10;99.90;;;;;;4997563;28;20117;-72
2022/07/01 06:10:11;;;;;;;12.45;8.02;;;15.40;99.90;;;;;;4993213;28;20026;-73
2022/07/01 06:12:40;;;;;;;12.98;6.88;;;15.30;99.90;;;;;;4996666;28;20076;-73
2022/07/01 06:15:07;;;;;;;18.55;7.72;;;15.30;99.90;;;;;;5005034;28;20033;-72
2022/07/01 06:17:36;;;;;;;15.27;7.97;;;15.30;99.90;;;;;;5012895;28;20105;-72
2022/07/01 06:20:02;;;;;;;15.23;7.85;;;15.40;99.90;;;;;;5012860;28;20029;-71
2022/07/01 06:22:28;;;;;;;12.35;7.53;;;15.20;99.90;;;;;;5012672;28;20092;-71
2022/07/01 06:24:53;;;;;;;13.05;7.10;;;15.40;99.90;;;;;;5012304;28;20101;-73
2022/07/01 06:27:19;;;;;;;11.88;7.65;;;15.50;99.90;;;;;;4994762;28;20664;-73
2022/07/01 06:29:45;;;;;;;20.90;8.95;;;15.70;99.90;;;;;;5012469;28;20548;-75
2022/07/01 06:32:11;;;;;;;11.13;6.10;;;15.90;99.90;;;;;;5012325;28;20048;-73
2022/07/01 06:34:36;;;;;;;14.85;7.25;;;15.90;99.90;;;;;;5012623;28;20037;-74
2022/07/01 06:37:03;;;;;;;11.27;6.72;;;15.90;99.90;;;;;;5012013;28;20024;-74
2022/07/01 06:39:28;;;;;;;12.63;6.43;;;16.20;99.90;;;;;;5011564;28;20076;-75
2022/07/01 06:42:03;;;;;;;11.73;7.10;;;16.20;99.90;;;;;;5011954;28;20042;-73
2022/07/01 06:45:12;;;;;;;12.35;6.60;;;15.90;99.90;;;;;;4994952;28;20052;-73
2022/07/01 06:47:38;;;;;;;12.38;6.78;;;15.70;99.90;;;;;;5008558;28;20621;-74
2022/07/01 06:50:04;;;;;;;8.93;6.03;;;16.00;99.90;;;;;;5011781;28;20105;-74
2022/07/01 06:52:29;;;;;;;12.93;6.22;;;16.20;99.90;;;;;;4994950;28;20128;-74
2022/07/01 06:54:55;;;;;;;15.93;7.15;;;16.30;99.90;;;;;;5012251;28;20042;-74
2022/07/01 06:57:20;;;;;;;10.27;6.50;;;16.10;99.90;;;;;;5012892;28;20109;-73
2022/07/01 06:59:46;;;;;;;8.98;5.38;;;16.20;99.90;;;;;;4995069;28;20026;-73
2022/07/01 07:02:11;;;;;;;11.15;6.50;;;16.00;99.90;;;;;;5012832;28;20026;-74
2022/07/01 07:04:37;;;;;;;14.23;5.82;;;16.00;99.90;;;;;;5007966;28;20019;-74
2022/07/01 07:07:03;;;;;;;12.32;6.25;;;16.40;99.90;;;;;;4975965;28;20041;-74
2022/07/01 07:09:28;;;;;;;18.20;6.85;;;16.50;99.90;;;;;;4993401;28;20022;-74
2022/07/01 07:11:54;;;;;;;14.95;6.78;;;16.50;99.90;;;;;;4993154;28;20418;-74
2022/07/01 07:14:19;;;;;;;15.57;6.07;;;16.20;99.90;;;;;;4976139;28;20498;-73
2022/07/01 07:16:45;;;;;;;11.85;6.57;;;16.40;99.90;;;;;;5000950;28;20022;-73
2022/07/01 07:19:11;;;;;;;10.15;5.80;;;16.50;99.90;;;;;;5014627;28;20367;-74
2022/07/01 07:21:36;;;;;;;13.43;6.70;;;16.10;99.90;;;;;;5016645;28;20030;-73
2022/07/01 07:24:01;;;;;;;14.05;6.43;;;16.30;99.90;;;;;;5014606;28;20470;-73
2022/07/01 07:26:27;;;;;;;7.22;5.50;;;16.50;99.90;;;;;;5016325;28;20028;-73
2022/07/01 07:28:53;;;;;;;13.10;6.40;;;16.50;99.90;;;;;;5016321;28;20068;-75
2022/07/01 07:31:19;;;;;;;11.60;5.68;;;16.70;99.90;;;;;;5016235;28;20379;-74
2022/07/01 07:33:44;;;;;;;10.05;6.10;;;17.20;99.90;;;;;;5016133;28;20097;-73
2022/07/01 07:36:10;;;;;;;10.00;5.75;;;17.30;99.90;;;;;;5015783;28;20046;-73
2022/07/01 07:38:39;;;;;;;13.77;6.18;;;17.10;99.90;;;;;;4998918;28;20542;-74
2022/07/01 07:41:04;;;;;;;11.23;5.75;;;17.10;99.90;;;;;;5016163;28;20022;-73
2022/07/01 07:43:30;;;;;;;7.82;5.53;;;17.90;99.90;;;;;;5016294;28;20030;-74
2022/07/01 07:45:55;;;;;;;7.57;4.57;;;17.60;99.90;;;;;;5016051;28;20029;-71
2022/07/01 07:48:21;;;;;;;8.68;5.53;;;17.70;99.90;;;;;;5016196;28;20036;-71
2022/07/01 07:50:47;;;;;;;16.60;6.00;;;17.60;99.90;;;;;;5016138;28;20076;-71
2022/07/01 07:53:13;;;;;;;11.57;5.10;;;17.60;99.90;;;;;;5015968;28;20021;-71
2022/07/01 07:55:38;;;;;;;11.35;5.07;;;18.00;99.90;;;;;;5015745;28;20407;-71
2022/07/01 07:58:05;;;;;;;10.57;4.25;;;18.20;99.90;;;;;;5015976;28;20021;-71
2022/07/01 08:00:31;;;;;;;8.88;4.28;;;18.70;99.90;;;;;;5016063;28;20026;-71
2022/07/01 08:02:56;;;;;;;8.38;4.15;;;18.70;99.90;;;;;;4998381;28;20026;-71
2022/07/01 08:05:22;;;;;;;15.15;4.22;;;18.70;99.90;;;;;;5015938;28;20065;-71
2022/07/01 08:07:47;;;;;;;14.73;5.47;;;18.80;99.90;;;;;;5015909;28;20044;-72
2022/07/01 08:10:13;;;;;;;7.90;4.70;;;19.00;99.90;;;;;;5015627;28;20029;-71
2022/07/01 08:12:39;;;;;;;7.78;4.53;;;18.40;99.90;;;;;;5015698;28;20029;-71
2022/07/01 08:15:05;;;;;;;8.25;4.40;;;18.00;99.90;;;;;;4998203;28;20022;-71
2022/07/01 08:17:31;;;;;;;8.98;4.72;;;17.70;99.90;;;;;;5015776;28;20037;-71
2022/07/01 08:19:56;;;;;;;7.50;4.53;;;17.20;99.90;;;;;;5015552;28;20022;-71
2022/07/01 08:22:22;;;;;;;9.02;4.63;;;16.90;99.90;;;;;;4998151;28;20029;-71
2022/07/01 08:24:48;;;;;;;14.70;6.07;;;17.10;99.90;;;;;;4998080;28;20382;-71
2022/07/01 08:27:13;;;;;;;23.02;6.72;;;17.20;99.90;;;;;;5015336;28;20022;-72
2022/07/01 08:29:39;;;;;;;9.40;4.88;;;17.40;99.90;;;;;;5014620;28;20026;-71
2022/07/01 08:32:06;;;;;;;10.50;3.90;;;17.70;99.90;;;;;;4997317;28;20022;-71
2022/07/01 08:34:31;;;;;;;8.32;4.03;;;18.30;99.90;;;;;;5015421;28;20018;-71
2022/07/01 08:36:56;;;;;;;13.10;3.42;;;18.80;99.90;;;;;;4997750;28;20018;-71
2022/07/01 08:39:22;;;;;;;8.55;3.53;;;19.60;99.90;;;;;;4997767;28;20478;-71
2022/07/01 08:41:48;;;;;;;6.10;2.72;;;21.30;98.50;;;;;;4997730;28;20029;-72
2022/07/01 08:44:13;;;;;;;5.70;2.63;;;21.80;94.30;;;;;;5015081;28;20048;-72
2022/07/01 08:46:39;;;;;;;7.13;2.58;;;22.80;92.30;;;;;;5015086;28;20034;-72
2022/07/01 08:49:04;;;;;;;6.70;3.17;;;22.00;93.10;;;;;;4997782;28;20026;-72
2022/07/01 08:51:30;;;;;;;9.85;2.92;;;21.50;95.70;;;;;;5014950;28;20026;-72
2022/07/01 08:53:55;;;;;;;8.30;3.00;;;20.80;96.70;;;;;;4997341;28;20018;-72
2022/07/01 08:59:06;;;;;;;6.95;3.15;;;19.50;98.90;;;;;;5014874;28;20029;-69
2022/07/01 09:01:32;;;;;;;8.63;2.70;;;20.30;97.70;;;;;;5014867;28;20045;-70
2022/07/01 09:04:21;;;;;;;5.68;2.33;;;22.00;94.00;;;;;;5014813;28;20441;-70
2022/07/01 09:06:47;;;;;;;3.55;1.75;;;22.40;90.00;;;;;;5014829;28;20109;-70
2022/07/01 09:09:14;;;;;;;7.07;2.45;;;21.10;95.50;;;;;;5014672;28;20432;-70
2022/07/01 09:11:53;;;;;;;5.93;1.80;;;20.70;96.60;;;;;;5014592;28;20105;-70
2022/07/01 09:14:20;;;;;;;9.52;3.05;;;19.70;97.30;;;;;;5013772;28;20033;-69
2022/07/01 09:16:48;;;;;;;13.23;3.13;;;19.60;97.60;;;;;;5013855;28;20394;-69
2022/07/01 09:19:14;;;;;;;11.35;2.45;;;19.40;97.80;;;;;;4996416;28;20017;-70
2022/07/01 09:21:40;;;;;;;5.15;1.70;;;19.40;98.30;;;;;;5013867;28;20168;-70
2022/07/01 09:24:22;;;;;;;7.10;2.20;;;19.20;96.70;;;;;;4995507;28;20072;-70
2022/07/01 09:26:55;;;;;;;13.40;3.03;;;20.70;95.00;;;;;;5009920;28;20036;-69
2022/07/01 09:29:24;;;;;;;5.88;2.28;;;19.90;96.50;;;;;;5014421;28;20092;-70
2022/07/01 09:31:50;;;;;;;5.43;2.25;;;19.60;97.20;;;;;;4996257;28;20040;-70
2022/07/01 09:34:15;;;;;;;6.50;2.40;;;19.20;97.50;;;;;;5005606;28;20410;-70
2022/07/01 09:36:43;;;;;;;6.45;1.77;;;19.40;97.30;;;;;;5012998;28;20497;-71
2022/07/01 09:39:09;;;;;;;14.15;3.15;;;19.70;95.90;;;;;;5002708;28;20385;-70
2022/07/01 09:41:36;;;;;;;5.03;1.98;;;20.10;96.50;;;;;;5012740;28;20022;-70
2022/07/01 09:44:08;;;;;;;2.85;1.50;;;20.20;96.10;;;;;;5013011;28;20449;-71
2022/07/01 09:46:34;;;;;;;3.40;1.48;;;20.70;92.50;;;;;;5013362;28;20097;-71
2022/07/01 09:49:00;;;;;;;5.93;2.17;;;21.50;89.80;;;;;;5012971;28;20117;-70
2022/07/01 09:51:25;;;;;;;5.40;1.67;;;22.10;91.60;;;;;;5011639;28;20124;-70
2022/07/01 09:53:51;;;;;;;8.30;2.75;;;22.30;88.80;;;;;;5012905;28;20455;-70
2022/07/01 09:56:17;;;;;;;9.88;2.42;;;23.00;86.70;;;;;;5012649;28;20052;-70
2022/07/01 09:58:42;;;;;;;9.85;2.40;;;22.70;86.60;;;;;;5012840;28;20112;-70
2022/07/01 10:01:08;;;;;;;7.60;2.45;;;22.70;85.70;;;;;;4995227;28;20033;-70
2022/07/01 10:03:34;;;;;;;3.95;1.70;;;21.20;91.40;;;;;;4995494;28;20030;-71
2022/07/01 10:06:33;;;;;;;4.45;1.25;;;21.40;90.90;;;;;;4995149;28;20045;-71
2022/07/01 10:09:17;;;;;;;4.75;1.60;;;22.10;89.10;;;;;;5012639;28;20118;-71
2022/07/01 10:11:42;;;;;;;7.27;2.10;;;23.40;78.20;;;;;;4978467;28;20029;-71
2022/07/01 10:14:09;;;;;;;4.35;1.77;;;22.70;81.50;;;;;;5012546;28;20264;-73
2022/07/01 10:16:36;;;;;;;5.82;1.88;;;22.20;81.40;;;;;;4995175;28;20478;-72
2022/07/01 10:19:20;;;;;;;4.22;1.40;;;22.70;84.00;;;;;;4994946;28;20080;-73
2022/07/01 10:21:46;;;;;;;4.30;1.37;;;22.30;85.00;;;;;;5012418;28;20113;-70
2022/07/01 10:24:15;;;;;;;5.60;1.70;;;21.80;86.20;;;;;;5012478;28;20343;-71
2022/07/01 10:26:41;;;;;;;5.03;2.10;;;21.70;86.30;;;;;;5012471;28;20063;-71
2022/07/01 10:29:35;;;;;;;7.13;2.13;;;21.50;86.50;;;;;;4993548;28;20022;-71
2022/07/01 10:32:04;;;;;;;8.70;1.85;;;21.70;90.30;;;;;;4992585;28;20042;-73
2022/07/01 10:34:37;;;;;;;6.80;1.63;;;21.70;84.00;;;;;;5006884;28;20534;-72
2022/07/01 10:37:10;;;;;;;9.15;2.78;;;21.80;83.70;;;;;;5011790;28;20474;-72
2022/07/01 10:39:55;;;;;;;3.40;1.70;;;22.00;82.90;;;;;;4994985;28;20032;-72
2022/07/01 10:42:21;;;;;;;2.60;1.20;;;22.30;89.80;;;;;;5011824;28;20018;-73
2022/07/01 10:45:09;;;;;;;7.60;1.67;;;23.90;80.30;;;;;;4994533;28;20099;-73
2022/07/01 10:47:35;;;;;;;3.42;1.75;;;23.00;77.30;;;;;;5012354;28;20026;-73
2022/07/01 10:50:11;;;;;;;5.82;1.73;;;22.10;82.70;;;;;;5012052;28;20034;-73
2022/07/01 10:52:36;;;;;;;7.15;1.60;;;21.90;85.10;;;;;;5011737;28;20034;-73
2022/07/01 10:55:04;;;;;;;6.13;1.40;;;23.70;76.40;;;;;;4995858;28;20046;-73
2022/07/01 10:57:30;;;;;;;3.50;1.45;;;22.50;78.00;;;;;;4996925;28;20104;-73
2022/07/01 11:00:19;;;;;;;4.28;1.67;;;22.30;83.80;;;;;;4979225;28;20102;-73
2022/07/01 11:02:44;;;;;;;31.15;7.25;;;23.40;80.20;;;;;;4996219;28;20022;-73
2022/07/01 11:05:11;;;;;;;5.35;1.83;;;23.20;75.40;;;;;;4996329;28;20052;-73
2022/07/01 11:07:39;;;;;;;5.32;1.65;;;22.80;78.80;;;;;;4996482;28;20030;-73
2022/07/01 11:10:06;;;;;;;2.58;1.30;;;22.60;74.30;;;;;;4996227;28;20092;-73
2022/07/01 11:12:32;;;;;;;4.45;1.58;;;22.30;77.30;;;;;;4996249;28;20041;-73
2022/07/01 11:14:58;;;;;;;6.18;1.90;;;21.70;83.30;;;;;;4996094;28;20105;-73
2022/07/01 11:17:25;;;;;;;4.80;1.27;;;23.20;78.60;;;;;;4978072;28;20031;-73
2022/07/01 11:19:52;;;;;;;2.97;1.40;;;23.90;68.70;;;;;;4996305;28;20121;-71
2022/07/01 11:22:22;;;;;;;6.25;1.60;;;22.90;71.90;;;;;;4995964;28;20034;-70
2022/07/01 11:25:01;;;;;;;4.47;1.40;;;23.40;77.00;;;;;;4995981;28;20570;-71
2022/07/01 11:27:27;;;;;;;8.48;1.67;;;22.20;81.10;;;;;;4983860;28;20030;-70
2022/07/01 11:29:53;;;;;;;8.50;1.65;;;23.80;74.20;;;;;;4982165;28;20028;-71
2022/07/01 11:32:33;;;;;;;7.40;1.50;;;24.20;62.20;;;;;;4998279;28;20390;-71
2022/07/01 11:35:00;;;;;;;3.80;1.20;;;23.90;62.50;;;;;;4997452;28;20033;-71
2022/07/01 11:40:15;;;;;;;5.43;1.30;;;24.50;64.60;;;;;;4986464;28;20041;-71
2022/07/01 11:42:41;;;;;;;6.40;1.70;;;23.40;66.70;;;;;;5014861;28;20038;-70
2022/07/01 11:45:07;;;;;;;2.35;1.00;;;23.00;63.80;;;;;;5014925;28;20034;-71
2022/07/01 11:47:33;;;;;;;4.40;1.23;;;24.20;62.00;;;;;;4997085;28;20478;-71
2022/07/01 11:49:59;;;;;;;5.97;1.10;;;24.90;65.50;;;;;;5014991;28;20029;-71
2022/07/01 11:52:24;;;;;;;4.22;1.20;;;25.40;60.20;;;;;;4996839;28;20022;-71
2022/07/01 11:54:51;;;;;;;3.47;1.05;;;25.80;59.60;;;;;;5014134;28;20057;-71
2022/07/01 11:57:24;;;;;;;4.25;1.55;;;26.20;57.00;;;;;;5014667;28;20730;-71
2022/07/01 11:59:52;;;;;;;5.00;1.10;;;26.20;56.40;;;;;;5014915;28;20033;-71
2022/07/01 12:02:19;;;;;;;6.32;1.50;;;26.10;56.20;;;;;;5014606;28;20103;-71
2022/07/01 12:04:45;;;;;;;8.27;1.90;;;25.30;57.20;;;;;;5014401;28;20025;-71
2022/07/01 12:07:11;;;;;;;3.40;0.98;;;24.10;58.00;;;;;;5014314;28;20029;-70
2022/07/01 12:09:36;;;;;;;3.58;1.20;;;23.70;57.50;;;;;;5014447;28;20026;-71
2022/07/01 12:12:04;;;;;;;5.05;1.20;;;23.40;60.10;;;;;;5014144;28;20022;-71
2022/07/01 12:14:31;;;;;;;6.35;1.30;;;23.60;56.90;;;;;;4996793;28;20441;-70
2022/07/01 12:16:58;;;;;;;7.70;2.65;;;23.90;57.90;;;;;;4996883;28;20126;-70
2022/07/01 12:19:35;;;;;;;2.83;1.25;;;23.80;57.10;;;;;;5013807;28;20030;-70
2022/07/01 12:22:01;;;;;;;6.57;1.70;;;23.10;60.90;;;;;;5014291;28;20030;-70
2022/07/01 12:24:26;;;;;;;3.67;1.23;;;22.90;60.90;;;;;;4989302;28;20553;-72
2022/07/01 12:26:58;;;;;;;7.53;1.17;;;24.10;59.40;;;;;;5001361;28;20038;-73
2022/07/01 12:29:24;;;;;;;3.47;1.38;;;24.90;55.70;;;;;;5014542;28;20034;-70
2022/07/01 12:32:03;;;;;;;2.15;0.93;;;25.20;55.80;;;;;;4996884;28;20113;-69
2022/07/01 12:34:49;;;;;;;2.42;1.30;;;24.50;55.90;;;;;;5004117;28;20040;-71
2022/07/01 12:37:35;;;;;;;3.63;0.95;;;25.10;56.90;;;;;;5014562;28;20026;-72
2022/07/01 12:40:06;;;;;;;4.60;1.20;;;25.60;53.10;;;;;;4997291;28;20026;-72
2022/07/01 12:42:40;;;;;;;6.00;1.70;;;24.50;52.80;;;;;;5014669;28;20104;-72
2022/07/01 12:45:06;;;;;;;5.35;1.20;;;24.80;56.10;;;;;;5014785;28;20038;-72
2022/07/01 12:47:34;;;;;;;4.07;1.45;;;24.20;59.70;;;;;;5007562;28;20034;-74
2022/07/01 12:50:25;;;;;;;4.20;1.15;;;23.90;60.10;;;;;;4995475;28;20085;-72
2022/07/01 12:52:58;;;;;;;3.25;0.90;;;23.60;60.10;;;;;;5006821;28;20485;-70
2022/07/01 12:55:23;;;;;;;5.90;1.10;;;24.30;61.00;;;;;;4993321;28;20383;-72
2022/07/01 12:57:50;;;;;;;3.00;1.15;;;24.90;58.80;;;;;;4994854;28;20029;-71
2022/07/01 13:00:20;;;;;;;7.45;1.50;;;23.70;59.00;;;;;;4994751;28;20026;-71
2022/07/01 13:02:45;;;;;;;4.95;1.20;;;22.60;62.10;;;;;;4994814;28;20110;-72